Tiempo atmosférico en la estación meteorológica de Camaleño, Fuente De, Cantabria (1090 m.)



Fecha
DESCASC
Temp. máxima en grados centígrados (hora)
DESCASC
Temp. mínima en grados centígrados (hora)
DESCASC
Temp. media en grados centígrados
DESCASC
Racha de viento máxima en m/sg (hora)
DESCASC
Velocidad máxima media en intervalos de 10 minutos(hora)
DESCASC
Precipitaciones diarias en mm
DESCASC
Precipitaciones de 00:00 a 06:00 en mm
DESCASC
Precipitaciones de 06:00 a 12:00 en mm
DESCASC
Precipitaciones de 12:00 a 18:00 en mm
DESCASC
Precipitaciones de 18:00 a 24:00 en mm
DESCASC
23-06-2019 23.9 (12:50) 13.5 (08:20) 18.7 8.06 (19:00) 3.33 (21:40) 0.4 0 0 0 0.4
22-06-2019 24.6 (16:50) 8.2 (04:40) 16.4 6.39 (11:40) 2.5 (15:40) 0 0 0 0 0
21-06-2019 15 (14:50) 9.1 (09:50) 12.1 3.33 (16:40) 1.39 (16:40) 5.2 2 3.2 0 0
20-06-2019 13.2 (13:20) 9.8 (00:00) 11.5 3.61 (21:10) 1.39 (21:10) 10.8 2.4 1.2 1.4 5.8
19-06-2019 20.7 (15:10) 11.2 (00:00) 16 10.28 (05:00) 3.06 (02:50) -- 0.2 0.2 -- 1.6
18-06-2019 24.4 (15:00) 13.6 (00:00) 19 11.39 (13:20) 2.78 (14:00) 0.4 0 0 0 0.4
17-06-2019 25.5 (14:40) 9.2 (00:00) 17.3 8.33 (12:40) 2.78 (13:30) 0 0 0 0 0
16-06-2019 23.7 (16:40) 5.8 (00:00) 14.8 5.28 (20:20) 2.5 (20:20) 0 0 0 0 0
15-06-2019 16.8 (16:40) 6.5 (00:00) 11.6 3.89 (14:40) 1.67 (18:20) 0.6 0.6 0 0 0
14-06-2019 16.5 (13:20) 4.2 (00:00) 10.3 5 (13:40) 2.22 (13:40) 2.8 0.2 0 0 2.6
13-06-2019 15.7 (15:50) 4.4 (00:00) 10 4.44 (16:00) 1.94 (16:20) 0.4 0.2 0 0 0.2
12-06-2019 12.5 (15:00) 2.4 (00:00) 7.5 9.17 (09:00) 4.17 (14:10) 0.2 0.2 0 0 0
11-06-2019 8.4 (14:20) 3.9 (00:00) 6.1 7.22 (23:59) 2.5 (23:59) 15 3.4 6.8 2.8 2
10-06-2019 15.3 (15:10) 5 (00:00) 10.2 6.67 (18:30) 2.22 (18:30) 1.4 0 0 0 1.4
09-06-2019 9.1 (14:40) 6.7 (00:00) 7.9 2.5 (19:10) 1.11 (09:50) 4.4 0.2 0 2.2 2
08-06-2019 17.2 (15:10) 5.4 (00:00) 11.3 5.83 (13:50) 2.22 (16:10) 0.8 0 0 0 0.8
07-06-2019 15.1 (15:40) 6.1 (00:00) 10.6 13.61 (10:20) 3.61 (10:20) 0.6 0 0 0 0.6
06-06-2019 15.9 (14:30) 3.7 (00:00) 9.8 11.94 (14:00) 4.44 (15:50) 12.2 0 0 0 12.2
05-06-2019 13 (16:00) 5.2 (00:00) 9.1 8.89 (13:00) 3.33 (13:00) 1 0.2 0.6 0.2 0
04-06-2019 20 (14:00) 6.9 (00:00) 13.5 8.61 (11:50) 3.06 (11:50) 8.8 0 0 4.6 4.2
03-06-2019 22.2 (13:50) 10.2 (00:00) 16.2 3.89 (14:30) 1.39 (12:30) 0 0 0 0 0
02-06-2019 26.1 (15:10) 12.5 (00:00) 19.3 6.67 (11:50) 2.22 (15:10) 0 0 0 0 0
01-06-2019 29.9 (17:00) 13.7 (00:00) 21.8 5.83 (14:10) 2.22 (15:20) 0 0 0 0 0
31-05-2019 27.5 (15:30) 10.9 (00:00) 19.2 5.28 (16:00) 2.22 (12:50) 0 0 0 0 0
30-05-2019 25.6 (16:30) 7.6 (00:00) 16.6 5 (16:40) 2.22 (16:40) 0 0 0 0 0
29-05-2019 19.7 (16:40) 3.7 (00:00) 11.7 5.28 (14:10) 1.94 (15:10) 0 0 0 0 0
28-05-2019 16.5 (16:00) 3.1 (00:00) 9.8 7.22 (15:10) 3.33 (15:10) 0 0 0 0 0
27-05-2019 18.2 (16:10) 7.2 (00:00) 12.7 7.22 (19:00) 2.78 (19:00) 0 0 0 0 0
26-05-2019 20.9 (16:40) 4.2 (00:00) 12.5 4.44 (16:00) 1.67 (14:00) 0 0 0 0 0

Gráficas

Temp. máximas Temp. mínimas Temp. medias Precipitaciones Rachas de viento máximas Velocidades máximas media en intervalos de 10 minutos

Datos horarios

Fecha y hora oficial Temperatura (ºC) Velocidad del viento (km/h) Dirección del viento Racha (km/h) Dirección de racha Precipitación (mm) Presión (hPa) Tendencia (hPa) Humedad (%)
2019-06-24 23:00:00 13.7 8 Sur 34 Noroeste 2.6 -- -- 86
2019-06-24 22:00:00 12.5 5 Sudoeste 25 Sudeste 2.2 -- -- 94
2019-06-24 21:00:00 12.6 6 Sudeste 18 Sudeste 2.2 -- -- 94
2019-06-24 20:00:00 13.3 5 Sudoeste 19 Sur 3.8 -- -- 93
2019-06-24 19:00:00 14.4 6 Sur 16 Sudoeste 1.2 -- -- 89
2019-06-24 18:00:00 16 6 Sur 16 Noroeste 0.8 -- -- 81
2019-06-24 17:00:00 19.1 2 Oeste 6 Sudoeste 0 -- -- 74
2019-06-24 16:00:00 19.6 2 Sudoeste 4 Sudoeste 0 -- -- 69
2019-06-24 15:00:00 18.4 2 Sur 4 Sur 0 -- -- 81
2019-06-24 14:00:00 19.3 0 Calma 10 Oeste 0 -- -- 72
2019-06-24 13:00:00 20.7 5 Oeste 11 Oeste 0 -- -- 60
2019-06-24 12:00:00 21.7 5 Este 13 Este 0 -- -- 55
2019-06-24 11:00:00 17.2 3 Sur 10 Este 0 -- -- 74
2019-06-24 10:00:00 15.7 3 Noroeste 12 Sur 0 -- -- 78
2019-06-24 09:00:00 16.3 2 Oeste 8 Noroeste 0 -- -- 74
2019-06-24 08:00:00 17.2 2 Sudoeste 15 Noroeste 0 -- -- 64
2019-06-24 07:00:00 16.8 6 Noroeste 16 Noroeste 0 -- -- 53
2019-06-24 06:00:00 13.8 0 Calma 14 Sur 0 -- -- 76
2019-06-24 05:00:00 14.6 3 Noroeste 14 Noroeste 0 -- -- 73
2019-06-24 04:00:00 12.7 2 Oeste 8 Oeste 0 -- -- 82
2019-06-24 03:00:00 12.1 0 Calma 7 Sur 0 -- -- 89
2019-06-24 02:00:00 12.8 3 Sur 9 Sur 0 -- -- 89
2019-06-24 01:00:00 14.5 4 Sudeste 12 Noroeste 0 -- -- 82
2019-06-24 00:00:00 16.7 2 Sur 14 Oeste 0 -- -- 69
2019-06-23 23:00:00 18.4 5 Oeste 25 Norte 0 -- -- 59
2019-06-23 22:00:00 19.5 6 Noroeste 22 Noroeste 0 -- -- 51
2019-06-23 21:00:00 18.2 6 Noroeste 21 Noroeste 0 -- -- 56
2019-06-23 20:00:00 18.1 8 Noroeste 22 Noroeste 0 -- -- 48
2019-06-23 19:00:00 18.1 10 Noroeste 29 Norte 0.4 -- -- 61
2019-06-23 18:00:00 17.9 6 Norte 24 Noroeste 0 -- -- 58
2019-06-23 17:00:00 19 8 Norte 26 Noroeste 0 -- -- 49
2019-06-23 16:00:00 20.8 6 Noroeste 23 Noroeste 0 -- -- 45
2019-06-23 15:00:00 20.5 3 Noroeste 23 Este 0 -- -- 41
2019-06-23 14:00:00 22.2 6 Este 22 Noroeste 0 -- -- 41
2019-06-23 13:00:00 23.8 5 Nordeste 22 Este 0 -- -- 42
2019-06-23 12:00:00 22.9 7 Este 19 Este 0 -- -- 41
2019-06-23 11:00:00 21.1 8 Este 23 Nordeste 0 -- -- 46
2019-06-23 10:00:00 16 2 Oeste 9 Oeste 0 -- -- 67
2019-06-23 09:00:00 13.9 4 Sudoeste 9 Oeste 0 -- -- 68
2019-06-23 08:00:00 13.7 2 Sudoeste 9 Sudoeste 0 -- -- 63
2019-06-23 07:00:00 14.4 3 Sudoeste 13 Sur 0 -- -- 56
2019-06-23 06:00:00 17 6 Oeste 14 Noroeste 0 -- -- 48
2019-06-23 05:00:00 15.9 3 Sudoeste 10 Este 0 -- -- 54
2019-06-23 04:00:00 16.8 4 Noroeste 9 Noroeste 0 -- -- 53
2019-06-23 03:00:00 17.8 4 Norte 19 Noroeste 0 -- -- 46
2019-06-23 02:00:00 15.4 3 Sur 8 Noroeste 0 -- -- 65
2019-06-23 01:00:00 14.7 0 Calma 6 Oeste 0 -- -- 73
2019-06-23 00:00:00 14.8 2 Sudoeste 6 Noroeste 0 -- -- 78
2019-06-22 23:00:00 15.7 2 Sudoeste 6 Oeste 0 -- -- 77
2019-06-22 22:00:00 16.8 2 Sudoeste 6 Sudoeste 0 -- -- 72
2019-06-22 21:00:00 18.2 2 Sur 7 Oeste 0 -- -- 63
2019-06-22 20:00:00 19.6 3 Oeste 11 Noroeste 0 -- -- 61
2019-06-22 19:00:00 22.2 2 Sudoeste 18 Este 0 -- -- 54
2019-06-22 18:00:00 24.4 4 Nordeste 18 Norte 0 -- -- 40
2019-06-22 17:00:00 24.6 5 Noroeste 15 Norte 0 -- -- 34
2019-06-22 16:00:00 22.5 6 Este 18 Este 0 -- -- 38
2019-06-22 15:00:00 22.5 6 Sudeste 16 Sur 0 -- -- 43
2019-06-22 14:00:00 22.3 4 Norte 15 Sudoeste 0 -- -- 40
2019-06-22 13:00:00 19.2 6 Sudeste 18 Sur 0 -- -- 54
2019-06-22 12:00:00 18.9 5 Sudeste 23 Sur 0 -- -- 56
2019-06-22 11:00:00 19.5 6 Sudeste 21 Este 0 -- -- 53
2019-06-22 10:00:00 15.3 4 Sudeste 20 Sur 0 -- -- 62
2019-06-22 09:00:00 13.2 3 Sur 18 Noroeste 0 -- -- 81
2019-06-22 08:00:00 10 3 Oeste 8 Sudoeste 0 -- -- 98
2019-06-22 07:00:00 9.2 5 Noroeste 11 Oeste 0 -- -- 98
2019-06-22 06:00:00 8.4 4 Oeste 9 Oeste 0 -- -- 100
2019-06-22 05:00:00 8.3 3 Sudoeste 8 Oeste 0 -- -- 100
2019-06-22 04:00:00 8.3 2 Noroeste 4 Noroeste 0 -- -- 100
2019-06-22 03:00:00 8.5 2 Oeste 4 Oeste 0 -- -- 99
2019-06-22 02:00:00 9 0 Calma 3 Sudoeste 0 -- -- 98
2019-06-22 01:00:00 10 2 Sudoeste 5 Este 0 -- -- 98
2019-06-22 00:00:00 10.6 0 Calma 4 Sudoeste 0 -- -- 99
2019-06-21 23:00:00 10.8 2 Sudoeste 8 Oeste 0 -- -- 97
2019-06-21 22:00:00 11.5 3 Sudoeste 7 Sudoeste 0 -- -- 94
2019-06-21 21:00:00 12.6 4 Sudoeste 7 Sudoeste 0 -- -- 89
2019-06-21 20:00:00 13.3 4 Sudoeste 8 Sur 0 -- -- 85
2019-06-21 19:00:00 14.3 2 Sudoeste 9 Oeste 0 -- -- 80
2019-06-21 18:00:00 14.5 3 Sudoeste 12 Oeste 0 -- -- 82
2019-06-21 17:00:00 15 4 Sudoeste 12 Sudoeste 0 -- -- 77
2019-06-21 16:00:00 14.3 3 Sudoeste 9 Sudeste 0 -- -- 80
2019-06-21 15:00:00 14.8 3 Sur 9 Noroeste 0 -- -- 74
2019-06-21 14:00:00 14 4 Este 8 Este 0 -- -- 77
2019-06-21 13:00:00 11.8 0 Calma 4 Nordeste 0 -- -- 94
2019-06-21 12:00:00 10.1 0 Calma 6 Sudoeste 0.8 -- -- 97
2019-06-21 11:00:00 9.3 3 Sudoeste 7 Sur 0.6 -- -- 98
2019-06-21 10:00:00 9.1 3 Noroeste 6 Sur 0.2 -- -- 100
2019-06-21 09:00:00 9.2 2 Oeste 8 Oeste 0.8 -- -- 100
2019-06-21 08:00:00 9.2 2 Oeste 6 Noroeste 0.4 -- -- 100
2019-06-21 07:00:00 9.5 3 Oeste 6 Noroeste 0.4 -- -- 100
2019-06-21 06:00:00 9.6 0 Calma 4 Noroeste 0.2 -- -- 100
2019-06-21 05:00:00 9.6 2 Sudoeste 5 Sudoeste 1.4 -- -- 100
2019-06-21 04:00:00 9.7 0 Calma 3 Sur 0.2 -- -- 100
2019-06-21 03:00:00 9.8 0 Calma 3 Sur 0 -- -- 100
2019-06-21 02:00:00 9.7 0 Calma 4 Oeste 0.2 -- -- 100
2019-06-21 01:00:00 9.7 0 Calma 8 Sudoeste 0 -- -- 100
2019-06-21 00:00:00 9.8 3 Sudoeste 6 Sur 1.8 -- -- 99
2019-06-20 23:00:00 9.9 2 Sudoeste 5 Sur 0.8 -- -- 99
2019-06-20 22:00:00 10.1 0 Calma 13 Sudoeste 0.6 -- -- 99
2019-06-20 21:00:00 10.4 3 Sudoeste 9 Sudoeste 0.4 -- -- 99
2019-06-20 20:00:00 10.6 4 Sur 9 Sudoeste 0.6 -- -- 99
2019-06-20 19:00:00 10.6 0 Calma 7 Sudoeste 1.6 -- -- 98
2019-06-20 18:00:00 10.8 3 Sudoeste 9 Sudoeste 0.6 -- -- 98
2019-06-20 17:00:00 11.3 4 Oeste 9 Sudoeste 0.4 -- -- 96
2019-06-20 16:00:00 11.9 4 Sudoeste 9 Sudoeste 0.4 -- -- 96
2019-06-20 15:00:00 12.4 3 Sudoeste 10 Sudoeste 0 -- -- 93
2019-06-20 14:00:00 13.2 4 Sudoeste 9 Sudoeste 0 -- -- 91
2019-06-20 13:00:00 12.8 2 Oeste 9 Sudeste 0 -- -- 93
2019-06-20 12:00:00 12.6 2 Sudeste 6 Sudoeste 0 -- -- 92
2019-06-20 11:00:00 11.7 2 Sudeste 7 Nordeste 0 -- -- 96
2019-06-20 10:00:00 10.7 0 Calma 5 Sur 0.4 -- -- 99
2019-06-20 09:00:00 10.6 0 Calma 4 Sudeste 0 -- -- 100
2019-06-20 08:00:00 10.4 2 Sudoeste 6 Sur 0.4 -- -- 100
2019-06-20 07:00:00 10.4 0 Calma 5 Sudoeste 0.4 -- -- 100
2019-06-20 06:00:00 10.5 0 Calma 4 Sudoeste 0.4 -- -- 100
2019-06-20 05:00:00 10.5 0 Calma 4 Sur 0.4 -- -- 99
2019-06-20 04:00:00 10.6 0 Calma 4 Sur 0.4 -- -- 99
2019-06-20 03:00:00 10.7 0 Calma 5 Oeste 0.2 -- -- 99
2019-06-20 02:00:00 10.8 0 Calma 5 Sudoeste 0.4 -- -- 99
2019-06-20 01:00:00 11 0 Calma 8 Sudoeste 0.6 -- -- 98
2019-06-20 00:00:00 11.2 3 Sudoeste 5 Sudoeste 0.6 -- -- 98
2019-06-19 23:00:00 11.4 0 Calma 10 Sudoeste 0.6 -- -- 97
2019-06-19 22:00:00 11.6 3 Sudoeste 8 Sudoeste 0.4 -- -- 97
2019-06-19 21:00:00 12.1 3 Sudoeste 8 Sudoeste 0 -- -- 94
2019-06-19 20:00:00 13 0 Calma 12 Sur 0 -- -- 90
2019-06-19 19:00:00 13.8 3 Sudoeste 12 Sur 0 -- -- 85
2019-06-19 18:00:00 15.4 6 Sudoeste 13 Sudoeste 0 -- -- 79
2019-06-19 17:00:00 18.2 5 Sudoeste 12 Nordeste 0 -- -- 70
2019-06-19 16:00:00 19.7 4 Este 15 Sur 0 -- -- 55
2019-06-19 15:00:00 20.5 5 Norte -- -- -- -- -- 48
2019-06-19 14:00:00 19.2 4 Sudeste 18 Sur 0 -- -- 52
2019-06-19 13:00:00 18.9 6 Sudeste 24 Sudeste -- -- -- 52
2019-06-19 12:00:00 17.2 6 Este 19 Este 0 -- -- 56
2019-06-19 11:00:00 16.2 5 Sudeste 24 Sur 0 -- -- 64
2019-06-19 10:00:00 15.4 6 Sudeste 19 Sur 0 -- -- 69
2019-06-19 09:00:00 14.7 6 Sudeste 18 Sudeste 0 -- -- 72
2019-06-19 08:00:00 13.6 3 Sudoeste 17 Sur 0 -- -- 83
2019-06-19 07:00:00 13.6 3 Sudoeste 15 Sur 0.2 -- -- 84
2019-06-19 06:00:00 15.4 7 Sur 23 Sur 0 -- -- 64
2019-06-19 05:00:00 15.7 11 Este 37 Nordeste 0 -- -- 65
2019-06-19 04:00:00 15.6 9 Este 26 Este 0 -- -- 68
2019-06-19 03:00:00 15.6 8 Este 27 Noroeste 0 -- -- 67
2019-06-19 02:00:00 14.9 5 Sudeste 27 Sudeste 0 -- -- 76
2019-06-19 01:00:00 14.8 9 Sudeste 26 Sudeste 0.2 -- -- 71
2019-06-19 00:00:00 15.1 5 Sudeste 22 Oeste 0 -- -- 72
2019-06-18 23:00:00 14.3 5 Sudeste 23 Noroeste 0.2 -- -- 80
2019-06-18 22:00:00 15.7 6 Este 24 Sur 0.2 -- -- 74
2019-06-18 21:00:00 17.7 7 Este 22 Sudoeste 0 -- -- 57
2019-06-18 20:00:00 18.8 5 Este 24 Norte 0 -- -- 52
2019-06-18 19:00:00 19.2 6 Este 26 Noroeste 0 -- -- 48
2019-06-18 18:00:00 19.6 6 Sudeste 21 Sudoeste 0 -- -- 49
2019-06-18 17:00:00 21 7 Nordeste 24 Oeste 0 -- -- 39
2019-06-18 16:00:00 22.3 7 Noroeste 26 Nordeste 0 -- -- 35
2019-06-18 15:00:00 24.4 8 Norte 36 Noroeste 0 -- -- 28
2019-06-18 14:00:00 23 10 Este 41 Noroeste 0 -- -- 32
2019-06-18 13:00:00 22.4 10 Este 30 Noroeste 0 -- -- 21
2019-06-18 12:00:00 22.4 9 Norte 24 Noroeste 0 -- -- 27
2019-06-18 11:00:00 21.4 6 Oeste 29 Nordeste 0 -- -- 31
2019-06-18 10:00:00 19.6 7 Sudeste 24 Noroeste 0 -- -- 34
2019-06-18 09:00:00 16.8 4 Norte 15 Noroeste 0 -- -- 40
2019-06-18 08:00:00 17 4 Este 15 Este 0 -- -- 41
2019-06-18 07:00:00 17.5 5 Este 21 Noroeste 0 -- -- 35
2019-06-18 06:00:00 17.6 4 Sudoeste 16 Noroeste 0 -- -- 35
2019-06-18 05:00:00 15.1 4 Noroeste 13 Noroeste 0 -- -- 41
2019-06-18 04:00:00 15.6 5 Este 18 Noroeste 0 -- -- 47
2019-06-18 03:00:00 14.4 3 Sur 12 Sudoeste 0 -- -- 52
2019-06-18 02:00:00 15.2 3 Oeste 10 Norte 0 -- -- 45
2019-06-18 01:00:00 17.2 5 Nordeste 22 Noroeste 0 -- -- 39
2019-06-18 00:00:00 15.4 3 Noroeste 6 Sur 0 -- -- 53
2019-06-17 23:00:00 16 3 Sur 8 Sudoeste 0 -- -- 50
2019-06-17 22:00:00 17 2 Sudoeste 7 Sudoeste 0 -- -- 51
2019-06-17 21:00:00 18.2 3 Sudoeste 6 Oeste 0 -- -- 51
2019-06-17 20:00:00 20.3 0 Calma 21 Sudoeste 0 -- -- 45
2019-06-17 19:00:00 20.9 3 Norte 11 Sudeste 0 -- -- 39
2019-06-17 18:00:00 22.3 5 Este 17 Oeste 0 -- -- 32
2019-06-17 17:00:00 23.6 4 Nordeste 25 Noroeste 0 -- -- 30
2019-06-17 16:00:00 25 5 Sur 22 Norte 0 -- -- 31
2019-06-17 15:00:00 24.8 9 Este 23 Este 0 -- -- 30
2019-06-17 14:00:00 24.7 7 Norte 29 Norte 0 -- -- 36
2019-06-17 13:00:00 23.1 6 Noroeste 30 Norte 0 -- -- 37
2019-06-17 12:00:00 23.6 5 Norte 24 Sudoeste 0 -- -- 34
2019-06-17 11:00:00 21.8 8 Nordeste 18 Este 0 -- -- 35
2019-06-17 10:00:00 16.1 4 Este 9 Nordeste 0 -- -- 68
2019-06-17 09:00:00 10.5 3 Oeste 10 Sur 0 -- -- 82
2019-06-17 08:00:00 9.7 2 Oeste 8 Este 0 -- -- 84
2019-06-17 07:00:00 9.7 3 Sur 11 Sudoeste 0 -- -- 84
2019-06-17 06:00:00 9.2 2 Sur 4 Sudoeste 0 -- -- 87
2019-06-17 05:00:00 9.6 0 Calma 4 Sudoeste 0 -- -- 88
2019-06-17 04:00:00 9.7 0 Calma 3 Oeste 0 -- -- 90
2019-06-17 03:00:00 9.7 0 Calma 4 Noroeste 0 -- -- 87
2019-06-17 02:00:00 10.1 0 Calma 4 Oeste 0 -- -- 85
2019-06-17 01:00:00 10.7 0 Calma 4 Oeste 0 -- -- 85
2019-06-17 00:00:00 11.5 0 Calma 4 Oeste 0 -- -- 85
2019-06-16 23:00:00 12.5 0 Calma 4 Oeste 0 -- -- 84
2019-06-16 22:00:00 14.1 3 Oeste 5 Sudoeste 0 -- -- 78
2019-06-16 21:00:00 16.1 4 Sudoeste 19 Noroeste 0 -- -- 70
2019-06-16 20:00:00 17.9 4 Noroeste 15 Noroeste 0 -- -- 62
2019-06-16 19:00:00 21.2 4 Oeste 15 Sudoeste 0 -- -- 51
2019-06-16 18:00:00 22.3 4 Sudoeste 18 Sur 0 -- -- 50
2019-06-16 17:00:00 23.2 6 Sudoeste 18 Sudoeste 0 -- -- 48
2019-06-16 16:00:00 23.1 5 Sudoeste 17 Sudoeste 0 -- -- 43
2019-06-16 15:00:00 22.3 5 Sur 13 Sudoeste 0 -- -- 44
2019-06-16 14:00:00 21.3 4 Sudeste 15 Sudoeste 0 -- -- 47
2019-06-16 13:00:00 20.2 4 Sudeste 14 Sur 0 -- -- 51
2019-06-16 12:00:00 18.3 6 Este 12 Este 0 -- -- 57
2019-06-16 11:00:00 15.5 3 Este 9 Nordeste 0 -- -- 69
2019-06-16 10:00:00 9.9 3 Nordeste 6 Este 0 -- -- 94
2019-06-16 09:00:00 6.1 2 Oeste 6 Sudoeste 0 -- -- 100
2019-06-16 08:00:00 5.9 2 Noroeste 5 Oeste 0 -- -- 99
2019-06-16 07:00:00 6.4 2 Sudoeste 6 Oeste 0 -- -- 99
2019-06-16 06:00:00 7 0 Calma 5 Sudeste 0 -- -- 98
2019-06-16 05:00:00 7.3 3 Sur 5 Sudoeste 0 -- -- 97
2019-06-16 04:00:00 7.7 0 Calma 4 Oeste 0 -- -- 96
2019-06-16 03:00:00 8.1 0 Calma 3 Sudoeste 0 -- -- 99
2019-06-16 02:00:00 8.1 0 Calma 4 Sudeste 0 -- -- 99
2019-06-16 01:00:00 8.1 0 Calma 3 Sudeste 0 -- -- 99
2019-06-16 00:00:00 8.1 0 Calma 4 Sur 0 -- -- 98
2019-06-15 23:00:00 8.3 0 Calma 6 Sudoeste 0 -- -- 98
2019-06-15 22:00:00 8.7 3 Sudoeste 9 Sudoeste 0 -- -- 94
2019-06-15 21:00:00 9.4 3 Oeste 10 Sudoeste 0 -- -- 91
2019-06-15 20:00:00 10.4 4 Sudoeste 10 Sudoeste 0 -- -- 87
2019-06-15 19:00:00 12.5 5 Sudoeste 12 Sur 0 -- -- 81
2019-06-15 18:00:00 14.6 3 Oeste 13 Sur 0 -- -- 75
2019-06-15 17:00:00 16 5 Sudoeste 13 Sudeste 0 -- -- 66
2019-06-15 16:00:00 16.2 3 Noroeste 10 Sudoeste 0 -- -- 65
2019-06-15 15:00:00 16.1 3 Sudoeste 14 Nordeste 0 -- -- 62
2019-06-15 14:00:00 15.8 5 Noroeste 9 Norte 0 -- -- 66
2019-06-15 13:00:00 13.6 2 Sudoeste 6 Noroeste 0 -- -- 75
2019-06-15 12:00:00 11.5 0 Calma 6 Noroeste 0 -- -- 76
2019-06-15 11:00:00 10.2 2 Este 5 Sudoeste 0 -- -- 92
2019-06-15 10:00:00 8.8 2 Sur 4 Este 0 -- -- 92
2019-06-15 09:00:00 7.6 0 Calma 4 Este 0 -- -- 99
2019-06-15 08:00:00 6.9 0 Calma 4 Sudoeste 0 -- -- 100
2019-06-15 07:00:00 6.6 0 Calma 3 Sudoeste 0 -- -- 99
2019-06-15 06:00:00 7.1 0 Calma 4 Sudoeste 0 -- -- 100
2019-06-15 05:00:00 7.2 0 Calma 4 Sur 0 -- -- 100
2019-06-15 04:00:00 7.3 2 Sudeste 4 Este 0 -- -- 100
2019-06-15 03:00:00 7.4 0 Calma 4 Sur 0 -- -- 99
2019-06-15 02:00:00 7.5 0 Calma 7 Sur 0.4 -- -- 99
2019-06-15 01:00:00 7.7 3 Sudoeste 6 Sudoeste 0.2 -- -- 99
2019-06-15 00:00:00 7.8 3 Oeste 5 Noroeste 1.6 -- -- 98
2019-06-14 23:00:00 8.4 0 Calma 12 Este 0.2 -- -- 98
2019-06-14 22:00:00 8.4 5 Sudeste 12 Este 0.2 -- -- 97
2019-06-14 21:00:00 8.8 3 Sudoeste 8 Sudoeste 0.4 -- -- 97
2019-06-14 20:00:00 8.8 3 Sudoeste 7 Sudoeste 0.2 -- -- 97
2019-06-14 19:00:00 9.2 5 Sudoeste 11 Sudoeste 0 -- -- 95
2019-06-14 18:00:00 10.1 3 Sudoeste 9 Sur 0 -- -- 90
2019-06-14 17:00:00 11.4 3 Sudoeste 14 Sudoeste 0 -- -- 83
2019-06-14 16:00:00 13.3 5 Sudoeste 14 Sudoeste 0 -- -- 77
2019-06-14 15:00:00 14.7 5 Sudoeste 15 Sudoeste 0 -- -- 73
2019-06-14 14:00:00 15.8 4 Noroeste 18 Sur 0 -- -- 67
2019-06-14 13:00:00 15 5 Sudeste 15 Sudoeste 0 -- -- 73
2019-06-14 12:00:00 14.7 4 Sudeste 12 Sudoeste 0 -- -- 71
2019-06-14 11:00:00 12.2 5 Nordeste 10 Este 0 -- -- 75
2019-06-14 10:00:00 7.8 3 Nordeste 7 Este 0 -- -- 99
2019-06-14 09:00:00 4.9 0 Calma 3 Oeste 0 -- -- 100
2019-06-14 08:00:00 4.4 0 Calma 5 Oeste 0 -- -- 100
2019-06-14 07:00:00 4.3 0 Calma 4 Sudoeste 0 -- -- 99
2019-06-14 06:00:00 4.8 0 Calma 3 Oeste 0 -- -- 97
2019-06-14 05:00:00 6.4 0 Calma 4 Oeste 0 -- -- 98
2019-06-14 04:00:00 7 0 Calma 2 Oeste 0 -- -- 100
2019-06-14 03:00:00 7 0 Calma 5 Este 0.2 -- -- 100
2019-06-14 02:00:00 7.1 2 Sudeste 5 Este 0 -- -- 100
2019-06-14 01:00:00 7.2 0 Calma 4 Sur 0 -- -- 100
2019-06-14 00:00:00 7.4 2 Oeste 5 Sur 0.2 -- -- 99
2019-06-13 23:00:00 7.5 2 Sudoeste 7 Sur 0 -- -- 99
2019-06-13 22:00:00 7.7 2 Sudoeste 7 Oeste 0 -- -- 98
2019-06-13 21:00:00 8 2 Sudoeste 8 Sur 0 -- -- 97
2019-06-13 20:00:00 8.4 2 Oeste 7 Oeste 0 -- -- 95
2019-06-13 19:00:00 8.8 3 Sudoeste 10 Sudoeste 0 -- -- 93
2019-06-13 18:00:00 9.5 5 Sudoeste 15 Sur 0 -- -- 89
2019-06-13 17:00:00 11.9 6 Sudoeste 15 Sudoeste 0 -- -- 79
2019-06-13 16:00:00 14.9 6 Sudoeste 16 Sudoeste 0 -- -- 71
2019-06-13 15:00:00 15.4 4 Sudoeste 12 Sudoeste 0 -- -- 66
2019-06-13 14:00:00 15.1 5 Sur 13 Nordeste 0 -- -- 65
2019-06-13 13:00:00 14.3 5 Este 13 Sudeste 0 -- -- 65
2019-06-13 12:00:00 13 4 Este 14 Este 0 -- -- 69
2019-06-13 11:00:00 10.1 3 Este 9 Nordeste 0 -- -- 79
2019-06-13 10:00:00 7.3 4 Nordeste 7 Este 0 -- -- 85
2019-06-13 09:00:00 4.7 0 Calma 3 Sur 0 -- -- 96
2019-06-13 08:00:00 4.8 0 Calma 2 Oeste 0 -- -- 97
2019-06-13 07:00:00 4.4 2 Sur 4 Sur 0 -- -- 97
2019-06-13 06:00:00 4.9 0 Calma 3 Sudoeste 0 -- -- 97
2019-06-13 05:00:00 5.1 0 Calma 3 Sudoeste 0 -- -- 96
2019-06-13 04:00:00 5.6 0 Calma 3 Sur 0.2 -- -- 96
2019-06-13 03:00:00 5.7 0 Calma 2 Sudoeste 0 -- -- 96
2019-06-13 02:00:00 5.9 0 Calma 8 Oeste 0 -- -- 96
2019-06-13 01:00:00 6.1 4 Oeste 8 Sudoeste 0 -- -- 96
2019-06-13 00:00:00 6.5 0 Calma 4 Norte 0 -- -- 95
2019-06-12 23:00:00 6.8 2 Noroeste 9 Sudoeste 0 -- -- 94
2019-06-12 22:00:00 7.6 2 Sudoeste 9 Sudoeste 0 -- -- 89
2019-06-12 21:00:00 8.6 3 Sudoeste 9 Sudoeste 0 -- -- 85
2019-06-12 20:00:00 9.6 3 Sudoeste 10 Sudoeste 0 -- -- 81
2019-06-12 19:00:00 10.2 4 Sudoeste 8 Sudoeste 0 -- -- 74
2019-06-12 18:00:00 11 3 Sudoeste 12 Sur 0 -- -- 70
2019-06-12 17:00:00 12.2 4 Norte 12 Sudoeste 0 -- -- 64
2019-06-12 16:00:00 11.5 3 Este 15 Este 0 -- -- 65
2019-06-12 15:00:00 12.5 5 Noroeste 31 Noroeste 0 -- -- 54
2019-06-12 14:00:00 11.3 9 Noroeste 22 Noroeste 0 -- -- 59
2019-06-12 13:00:00 10.4 8 Sur 18 Sur 0 -- -- 63
2019-06-12 12:00:00 8.9 3 Sudeste 12 Sudoeste 0 -- -- 68
2019-06-12 11:00:00 8 3 Norte 20 Oeste 0 -- -- 71
2019-06-12 10:00:00 6.7 6 Noroeste 27 Noroeste 0 -- -- 73
2019-06-12 09:00:00 5.6 8 Norte 33 Norte 0 -- -- 73
2019-06-12 08:00:00 4.4 7 Sur 27 Sur 0 -- -- 82
2019-06-12 07:00:00 2.7 4 Sur 13 Sur 0 -- -- 97
2019-06-12 06:00:00 2.4 2 Oeste 11 Sudoeste 0.2 -- -- 95
2019-06-12 05:00:00 2.7 3 Oeste 17 Sur 0 -- -- 95
2019-06-12 04:00:00 2.6 0 Calma 9 Noroeste 0 -- -- 99
2019-06-12 03:00:00 2.8 2 Sudoeste 6 Sur 0 -- -- 99
2019-06-12 02:00:00 3 3 Oeste 9 Oeste 0 -- -- 98
2019-06-12 01:00:00 3.4 0 Calma 27 Este 0 -- -- 95
2019-06-12 00:00:00 4.9 9 Sudoeste 26 Sur 0 -- -- 80
2019-06-11 23:00:00 4.5 4 Sudoeste 14 Noroeste 0 -- -- 94
2019-06-11 22:00:00 5 2 Oeste 12 Sur 0.8 -- -- 96
2019-06-11 21:00:00 5.8 0 Calma 15 Sur 0.6 -- -- 93
2019-06-11 20:00:00 6.4 0 Calma 14 Sur 0.6 -- -- 93
2019-06-11 19:00:00 7.2 3 Sur 12 Sur 0 -- -- 92
2019-06-11 18:00:00 7.7 2 Norte 8 Este 0.6 -- -- 86
2019-06-11 17:00:00 7.7 3 Sur 12 Este 0.6 -- -- 87
2019-06-11 16:00:00 8 3 Nordeste 12 Este 0.4 -- -- 83
2019-06-11 15:00:00 8.2 2 Oeste 10 Sudoeste 0 -- -- 87
2019-06-11 14:00:00 8.3 4 Sudoeste 10 Oeste 0.6 -- -- 87
2019-06-11 13:00:00 7 4 Noroeste 12 Noroeste 0.6 -- -- 92
2019-06-11 12:00:00 4.9 2 Noroeste 5 Noroeste 1.8 -- -- 92
2019-06-11 11:00:00 4.3 0 Calma 8 Noroeste 1.2 -- -- 94
2019-06-11 10:00:00 4 3 Noroeste 7 Noroeste 1.4 -- -- 94
2019-06-11 09:00:00 4 0 Calma 4 Oeste 0.6 -- -- 98
2019-06-11 08:00:00 4.1 0 Calma 6 Sur 0.8 -- -- 99
2019-06-11 07:00:00 4.2 0 Calma 5 Noroeste 1 -- -- 98
2019-06-11 06:00:00 4.5 0 Calma 6 Oeste 1.4 -- -- 99
2019-06-11 05:00:00 4.8 3 Sudoeste 6 Oeste 1 -- -- 99
2019-06-11 04:00:00 5.1 2 Oeste 5 Sudoeste 0.6 -- -- 98
2019-06-11 03:00:00 5.3 0 Calma 9 Sudeste 0.2 -- -- 98
2019-06-11 02:00:00 5.3 3 Sur 6 Sudoeste 0.2 -- -- 97
2019-06-11 01:00:00 5.8 0 Calma 4 Nordeste 0 -- -- 99
2019-06-11 00:00:00 5.8 0 Calma 6 Sur 0 -- -- 99
2019-06-10 23:00:00 6.1 3 Sudeste 6 Sur 0.2 -- -- 98
2019-06-10 22:00:00 6.5 3 Sudoeste 8 Sur 0.2 -- -- 98
2019-06-10 21:00:00 6.8 3 Sudoeste 10 Sudoeste 0.2 -- -- 97
2019-06-10 20:00:00 7.5 5 Sudoeste 13 Sudoeste 0.8 -- -- 95
2019-06-10 19:00:00 8.9 4 Sudoeste 24 Este 0 -- -- 85
2019-06-10 18:00:00 11.3 4 Sudoeste 13 Sudoeste 0 -- -- 77
2019-06-10 17:00:00 11.9 4 Sudoeste 12 Sudeste 0 -- -- 74
2019-06-10 16:00:00 13.4 6 Sudoeste 16 Sudoeste 0 -- -- 66
2019-06-10 15:00:00 15 6 Nordeste 16 Este 0 -- -- 59
2019-06-10 14:00:00 13.9 4 Sudeste 15 Nordeste 0 -- -- 65
2019-06-10 13:00:00 11.7 3 Noroeste 11 Noroeste 0 -- -- 77
2019-06-10 12:00:00 9.2 2 Oeste 11 Nordeste 0 -- -- 84
2019-06-10 11:00:00 8.6 3 Sudeste 8 Sur 0 -- -- 88
2019-06-10 10:00:00 7.5 2 Noroeste 5 Este 0 -- -- 93
2019-06-10 09:00:00 5.5 0 Calma 3 Noroeste 0 -- -- 97
2019-06-10 08:00:00 5.3 3 Noroeste 6 Sur 0 -- -- 98
2019-06-10 07:00:00 5.1 3 Sur 5 Oeste 0 -- -- 99
2019-06-10 06:00:00 5.1 2 Sur 5 Sur 0 -- -- 99
2019-06-10 05:00:00 5.4 3 Sur 5 Sur 0 -- -- 99
2019-06-10 04:00:00 5.9 0 Calma 6 Sur 0 -- -- 100
2019-06-10 03:00:00 6.2 0 Calma 5 Sur 0 -- -- 100
2019-06-10 02:00:00 6.5 0 Calma 5 Sudoeste 0 -- -- 100
2019-06-10 01:00:00 6.6 3 Sudoeste 6 Sudoeste 0 -- -- 100
2019-06-10 00:00:00 6.7 2 Oeste 5 Sudoeste 0.2 -- -- 100
2019-06-09 23:00:00 6.9 3 Oeste 8 Sudoeste 0.2 -- -- 100
2019-06-09 22:00:00 7.1 3 Sudoeste 8 Sudoeste 0 -- -- 99
2019-06-09 21:00:00 7.6 3 Oeste 6 Sudoeste 0.4 -- -- 99
2019-06-09 20:00:00 7.9 3 Oeste 9 Sur 0.8 -- -- 98
2019-06-09 19:00:00 8.5 3 Oeste 6 Oeste 0.4 -- -- 98
2019-06-09 18:00:00 8.6 3 Sur 8 Sudoeste 0.2 -- -- 97
2019-06-09 17:00:00 8.9 0 Calma 6 Sur 0.2 -- -- 96
2019-06-09 16:00:00 9.1 2 Este 6 Sudoeste 1.8 -- -- 94
2019-06-09 15:00:00 9.1 2 Sudeste 5 Sudoeste 0 -- -- 93
2019-06-09 14:00:00 8.7 2 Sur 8 Sudoeste 0 -- -- 95
2019-06-09 13:00:00 8.3 2 Sur 6 Sudoeste 0 -- -- 96
2019-06-09 12:00:00 8.5 2 Sudoeste 6 Sudoeste 0 -- -- 95
2019-06-09 11:00:00 8.5 2 Sudeste 8 Sudeste 0 -- -- 95
2019-06-09 10:00:00 8.1 4 Sur 8 Sur 0 -- -- 97
2019-06-09 09:00:00 7.8 3 Sur 6 Sudoeste 0 -- -- 99
2019-06-09 08:00:00 7.5 2 Sudoeste 6 Sur 0 -- -- 100
2019-06-09 07:00:00 7.3 2 Sur 5 Sudoeste 0 -- -- 100
2019-06-09 06:00:00 7.3 0 Calma 3 Sudoeste 0 -- -- 100
2019-06-09 05:00:00 7.4 0 Calma 4 Sur 0 -- -- 100
2019-06-09 04:00:00 7.4 0 Calma 3 Sudeste 0 -- -- 100
2019-06-09 03:00:00 7.4 0 Calma 4 Sudoeste 0.2 -- -- 100
2019-06-09 02:00:00 7.4 0 Calma 6 Sur 0 -- -- 100
2019-06-09 01:00:00 7.3 0 Calma 5 Sur 0 -- -- 99
2019-06-09 00:00:00 7.4 2 Sur 5 Sur 0 -- -- 99
2019-06-08 23:00:00 7.5 0 Calma 7 Sur 0.2 -- -- 99
2019-06-08 22:00:00 7.7 3 Sudoeste 7 Sur 0.4 -- -- 98
2019-06-08 21:00:00 8 2 Oeste 8 Sudoeste 0.2 -- -- 98
2019-06-08 20:00:00 8.3 2 Sudoeste 10 Oeste 0 -- -- 96
2019-06-08 19:00:00 9 4 Oeste 15 Sudoeste 0 -- -- 92
2019-06-08 18:00:00 11.1 5 Sudoeste 15 Sur 0 -- -- 82
2019-06-08 17:00:00 14.4 5 Sudoeste 17 Sur 0 -- -- 71
2019-06-08 16:00:00 17 5 Sur 17 Nordeste 0 -- -- 61
2019-06-08 15:00:00 17.1 5 Sudoeste 15 Sur 0 -- -- 57
2019-06-08 14:00:00 15.6 6 Sudoeste 21 Este 0 -- -- 60
2019-06-08 13:00:00 14.4 4 Sudeste 10 Nordeste 0 -- -- 61
2019-06-08 12:00:00 11.9 5 Sur 11 Este 0 -- -- 66
2019-06-08 11:00:00 10.5 5 Este 10 Nordeste 0 -- -- 73
2019-06-08 10:00:00 8 4 Este 6 Nordeste 0 -- -- 79
2019-06-08 09:00:00 6.4 0 Calma 3 Noroeste 0 -- -- 92
2019-06-08 08:00:00 5.8 0 Calma 4 Sur 0 -- -- 97
2019-06-08 07:00:00 5.5 0 Calma 3 Oeste 0 -- -- 96
2019-06-08 06:00:00 5.5 0 Calma 4 Sudoeste 0 -- -- 97
2019-06-08 05:00:00 5.7 0 Calma 4 Sur 0 -- -- 97
2019-06-08 04:00:00 5.7 0 Calma 4 Sur 0 -- -- 97
2019-06-08 03:00:00 5.9 2 Sudoeste 6 Sudoeste 0 -- -- 97
2019-06-08 02:00:00 6.4 0 Calma 4 Sudoeste 0 -- -- 96
2019-06-08 01:00:00 6.4 2 Sudoeste 4 Sur 0 -- -- 94
2019-06-08 00:00:00 6.6 0 Calma 4 Sur 0 -- -- 94
2019-06-07 23:00:00 6.7 2 Sur 9 Sudoeste 0 -- -- 93
2019-06-07 22:00:00 7.2 3 Sudoeste 9 Sur 0 -- -- 93
2019-06-07 21:00:00 8 2 Oeste 6 Oeste 0 -- -- 89
2019-06-07 20:00:00 8.7 0 Calma 10 Sudoeste 0.6 -- -- 88
2019-06-07 19:00:00 10.2 4 Sudoeste 10 Sur 0 -- -- 74
2019-06-07 18:00:00 11.6 5 Sudeste 17 Sudoeste 0 -- -- 68
2019-06-07 17:00:00 13.6 5 Nordeste 13 Nordeste 0 -- -- 48
2019-06-07 16:00:00 14.5 4 Sur 16 Sur 0 -- -- 38
2019-06-07 15:00:00 13.9 8 Este 20 Oeste 0 -- -- 38
2019-06-07 14:00:00 14.1 8 Sudoeste 27 Norte 0 -- -- 45
2019-06-07 13:00:00 12.6 7 Sudeste 28 Sudoeste 0 -- -- 40
2019-06-07 12:00:00 12.3 8 Este 37 Noroeste 0 -- -- 44
2019-06-07 11:00:00 11.1 9 Norte 49 Noroeste 0 -- -- 40
2019-06-07 10:00:00 9.2 7 Norte 37 Norte 0 -- -- 53
2019-06-07 09:00:00 7.2 8 Sudoeste 28 Sur 0 -- -- 56
2019-06-07 08:00:00 6.6 7 Sur 28 Sur 0 -- -- 62
2019-06-07 07:00:00 6.2 6 Sudeste 28 Sur 0 -- -- 65
2019-06-07 06:00:00 6.5 8 Sudeste 29 Sur 0 -- -- 63
2019-06-07 05:00:00 6.6 9 Sudeste 22 Este 0 -- -- 68
2019-06-07 04:00:00 6.6 9 Sudeste 30 Este 0 -- -- 68
2019-06-07 03:00:00 6.8 9 Este 31 Este 0 -- -- 66
2019-06-07 02:00:00 7.2 10 Sudeste 34 Noroeste 0 -- -- 68
2019-06-07 01:00:00 7.3 8 Este 33 Sur 0 -- -- 74
2019-06-07 00:00:00 7.4 10 Este 26 Nordeste 0 -- -- 71
2019-06-06 23:00:00 7.5 10 Este 41 Sudeste 2.4 -- -- 71
2019-06-06 22:00:00 9.9 8 Este 24 Este 2 -- -- 86
2019-06-06 21:00:00 8.9 4 Sudeste 22 Este 4.6 -- -- 92
2019-06-06 20:00:00 9.2 4 Sudeste 19 Sudoeste 3 -- -- 90
2019-06-06 19:00:00 13 7 Nordeste 40 Norte 0.2 -- -- 66
2019-06-06 18:00:00 14.5 8 Norte 36 Noroeste 0 -- -- 48
2019-06-06 17:00:00 15 8 Norte 40 Noroeste 0 -- -- 45
2019-06-06 16:00:00 13.6 14 Noroeste 39 Oeste 0 -- -- 50
2019-06-06 15:00:00 14.9 14 Noroeste 38 Norte 0 -- -- 44
2019-06-06 14:00:00 15.6 13 Norte 43 Noroeste 0 -- -- 48
2019-06-06 13:00:00 12.9 10 Norte 43 Noroeste 0 -- -- 46
2019-06-06 12:00:00 13.1 6 Este 21 Noroeste 0 -- -- 46
2019-06-06 11:00:00 10 3 Este 13 Este 0 -- -- 60
2019-06-06 10:00:00 9 6 Noroeste 19 Noroeste 0 -- -- 59
2019-06-06 09:00:00 6.1 5 Este 13 Sur 0 -- -- 72
2019-06-06 08:00:00 4.3 0 Calma 6 Sudoeste 0 -- -- 93
2019-06-06 07:00:00 3.8 2 Oeste 6 Sudeste 0 -- -- 95
2019-06-06 06:00:00 4.4 2 Sur 5 Sudeste 0 -- -- 97
2019-06-06 05:00:00 4.5 0 Calma 4 Oeste 0 -- -- 96
2019-06-06 04:00:00 5 0 Calma 4 Sur 0 -- -- 96
2019-06-06 03:00:00 5.2 0 Calma 5 Sudoeste 0 -- -- 95
2019-06-06 02:00:00 5.3 2 Sudoeste 7 Oeste 0 -- -- 95
2019-06-06 01:00:00 5.5 3 Sudoeste 9 Sudoeste 0 -- -- 95
2019-06-06 00:00:00 5.7 3 Sudoeste 9 Oeste 0 -- -- 94
2019-06-05 23:00:00 6 3 Sudoeste 8 Sudoeste 0 -- -- 92
2019-06-05 22:00:00 6.3 0 Calma 10 Oeste 0 -- -- 91
2019-06-05 21:00:00 7 5 Sudoeste 11 Sudoeste 0 -- -- 85
2019-06-05 20:00:00 8.4 4 Sudoeste 18 Nordeste 0 -- -- 79
2019-06-05 19:00:00 11 8 Nordeste 24 Nordeste 0 -- -- 61
2019-06-05 18:00:00 12 8 Sur 24 Sur 0 -- -- 58
2019-06-05 17:00:00 12.7 9 Sudoeste 27 Noroeste 0 -- -- 57
2019-06-05 16:00:00 13 7 Sur 24 Oeste 0 -- -- 53
2019-06-05 15:00:00 12.3 6 Este 24 Sudoeste 0 -- -- 61
2019-06-05 14:00:00 12 10 Sur 30 Oeste 0 -- -- 59
2019-06-05 13:00:00 10.7 12 Sudoeste 32 Sudoeste 0.2 -- -- 67
2019-06-05 12:00:00 10.8 6 Oeste 26 Oeste 0 -- -- 70
2019-06-05 11:00:00 7.7 9 Sudoeste 27 Sudoeste 0 -- -- 80
2019-06-05 10:00:00 7.8 6 Sudoeste 21 Oeste 0.2 -- -- 83
2019-06-05 09:00:00 6.9 3 Noroeste 7 Noroeste 0.2 -- -- 95
2019-06-05 08:00:00 5.8 0 Calma 5 Noroeste 0.2 -- -- 99
2019-06-05 07:00:00 5.2 0 Calma 5 Sudeste 0 -- -- 98
2019-06-05 06:00:00 5.6 3 Sur 10 Sur 0 -- -- 97
2019-06-05 05:00:00 6.3 2 Sudoeste 7 Sudoeste 0 -- -- 98
2019-06-05 04:00:00 6.5 0 Calma 9 Sur 0 -- -- 99
2019-06-05 03:00:00 6.8 2 Noroeste 5 Este 0 -- -- 99
2019-06-05 02:00:00 6.8 0 Calma 4 Este 0 -- -- 99
2019-06-05 01:00:00 6.8 0 Calma 4 Sudeste 0.2 -- -- 98
2019-06-05 00:00:00 6.9 2 Nordeste 6 Sudoeste 0.2 -- -- 98
2019-06-04 23:00:00 7.3 2 Sudoeste 7 Este 0.8 -- -- 98
2019-06-04 22:00:00 8.1 0 Calma 6 Sur 0.2 -- -- 98
2019-06-04 21:00:00 8.3 3 Sudoeste 9 Oeste 1.6 -- -- 97
2019-06-04 20:00:00 8.8 4 Oeste 10 Sur 0.8 -- -- 96
2019-06-04 19:00:00 9.7 4 Sudoeste 13 Sudoeste 0.6 -- -- 95
2019-06-04 18:00:00 11 4 Noroeste 17 Oeste 4.6 -- -- 92
2019-06-04 17:00:00 14.9 8 Sudoeste 19 Sur 0 -- -- 76
2019-06-04 16:00:00 18.3 5 Sur 17 Noroeste 0 -- -- 66
2019-06-04 15:00:00 18.5 6 Nordeste 19 Oeste 0 -- -- 47
2019-06-04 14:00:00 20 4 Nordeste 25 Este 0 -- -- 44
2019-06-04 13:00:00 19.4 8 Sudeste 27 Sudoeste 0 -- -- 45
2019-06-04 12:00:00 19.1 8 Sur 31 Sur 0 -- -- 45
2019-06-04 11:00:00 18.9 9 Sur 28 Sur 0 -- -- 46
2019-06-04 10:00:00 16.7 9 Sudeste 23 Sur 0 -- -- 49
2019-06-04 09:00:00 11.9 4 Noroeste 10 Noroeste 0 -- -- 70
2019-06-04 08:00:00 11 2 Sudoeste 6 Sudoeste 0 -- -- 76
2019-06-04 07:00:00 11 0 Calma 5 Oeste 0 -- -- 74
2019-06-04 06:00:00 12 2 Sudoeste 12 Sur 0 -- -- 65
2019-06-04 05:00:00 12.8 2 Sudoeste 8 Noroeste 0 -- -- 60
2019-06-04 04:00:00 14.7 3 Sudeste 14 Sur 0 -- -- 56
2019-06-04 03:00:00 15.1 5 Sudeste 13 Este 0 -- -- 65
2019-06-04 02:00:00 12.4 3 Noroeste 8 Sur 0 -- -- 92
2019-06-04 01:00:00 12.3 0 Calma 4 Sur 0 -- -- 91
2019-06-04 00:00:00 13.4 2 Sudoeste 5 Sudoeste 0 -- -- 86
2019-06-03 23:00:00 15 0 Calma 8 Oeste 0 -- -- 80
2019-06-03 22:00:00 15.6 3 Oeste 8 Sudoeste 0 -- -- 78
2019-06-03 21:00:00 16.5 3 Sudoeste 9 Sudoeste 0 -- -- 76
2019-06-03 20:00:00 17.6 3 Sudoeste 9 Sudoeste 0 -- -- 74
2019-06-03 19:00:00 19.3 4 Sudoeste 10 Sudoeste 0 -- -- 68
2019-06-03 18:00:00 21.1 3 Sudoeste 13 Oeste 0 -- -- 61
2019-06-03 17:00:00 21 3 Sur 10 Sudoeste 0 -- -- 61
2019-06-03 16:00:00 21.5 3 Sudoeste 12 Sudoeste 0 -- -- 60
2019-06-03 15:00:00 21.2 4 Sudoeste 14 Sur 0 -- -- 53
2019-06-03 14:00:00 22 5 Este 12 Sur 0 -- -- 50
2019-06-03 13:00:00 20.5 3 Sur 14 Este 0 -- -- 54
2019-06-03 12:00:00 19.8 3 Sudeste 10 Sur 0 -- -- 56
2019-06-03 11:00:00 17.3 4 Este 9 Este 0 -- -- 61
2019-06-03 10:00:00 14 2 Noroeste 5 Este 0 -- -- 72
2019-06-03 09:00:00 11.9 0 Calma 5 Noroeste 0 -- -- 79
2019-06-03 08:00:00 10.2 0 Calma 4 Noroeste 0 -- -- 86
2019-06-03 07:00:00 10.3 0 Calma 6 Oeste 0 -- -- 82
2019-06-03 06:00:00 11.1 0 Calma 8 Noroeste 0 -- -- 81
2019-06-03 05:00:00 10.9 3 Sur 6 Sur 0 -- -- 82
2019-06-03 04:00:00 10.5 0 Calma 3 Sudoeste 0 -- -- 82
2019-06-03 03:00:00 11 0 Calma 4 Sudoeste 0 -- -- 79
2019-06-03 02:00:00 12.2 2 Oeste 4 Oeste 0 -- -- 73
2019-06-03 01:00:00 12.8 2 Sudoeste 5 Sur 0 -- -- 72
2019-06-03 00:00:00 13.4 0 Calma 3 Sudoeste 0 -- -- 71
2019-06-02 23:00:00 14.3 0 Calma 3 Sur 0 -- -- 66
2019-06-02 22:00:00 15.9 3 Sudoeste 5 Sudoeste 0 -- -- 64
2019-06-02 21:00:00 17.8 0 Calma 5 Sur 0 -- -- 64
2019-06-02 20:00:00 19.3 2 Sudoeste 6 Sudoeste 0 -- -- 57
2019-06-02 19:00:00 21 3 Sudoeste 9 Sudoeste 0 -- -- 52
2019-06-02 18:00:00 22.6 2 Oeste 12 Sudoeste 0 -- -- 49
2019-06-02 17:00:00 23.9 5 Sudoeste 14 Sudoeste 0 -- -- 45
2019-06-02 16:00:00 25.2 4 Sudeste 16 Noroeste 0 -- -- 40
2019-06-02 15:00:00 25.8 5 Este 15 Sur 0 -- -- 28
2019-06-02 14:00:00 25.2 5 Este 20 Sudoeste 0 -- -- 26
2019-06-02 13:00:00 25.2 6 Norte 21 Sudeste 0 -- -- 28
2019-06-02 12:00:00 25.1 7 Sudeste 24 Norte 0 -- -- 26
2019-06-02 11:00:00 22.8 5 Norte 12 Nordeste 0 -- -- 40
2019-06-02 10:00:00 17.5 3 Sur 10 Sudeste 0 -- -- 60
2019-06-02 09:00:00 14.8 2 Oeste 8 Oeste 0 -- -- 71
2019-06-02 08:00:00 13.3 2 Oeste 4 Oeste 0 -- -- 70
2019-06-02 07:00:00 12.6 0 Calma 3 Oeste 0 -- -- 67
2019-06-02 06:00:00 12.6 0 Calma 4 Sudoeste 0 -- -- 65
2019-06-02 05:00:00 12.9 0 Calma 4 Noroeste 0 -- -- 63
2019-06-02 04:00:00 13.2 0 Calma 4 Noroeste 0 -- -- 63
2019-06-02 03:00:00 14 0 Calma 3 Oeste 0 -- -- 61
2019-06-02 02:00:00 14.6 0 Calma 3 Oeste 0 -- -- 59
2019-06-02 01:00:00 15.2 0 Calma 4 Noroeste 0 -- -- 55
2019-06-02 00:00:00 15.6 0 Calma 4 Sudoeste 0 -- -- 56
2019-06-01 23:00:00 16.2 0 Calma 4 Oeste 0 -- -- 55
2019-06-01 22:00:00 17.2 0 Calma 5 Oeste 0 -- -- 54
2019-06-01 21:00:00 18.9 2 Oeste 7 Oeste 0 -- -- 50
2019-06-01 20:00:00 21.2 2 Sur 9 Oeste 0 -- -- 48
2019-06-01 19:00:00 26.1 4 Oeste 16 Sudoeste 0 -- -- 35
2019-06-01 18:00:00 27.7 5 Sur 19 Sudoeste 0 -- -- 30
2019-06-01 17:00:00 29.9 4 Noroeste 14 Sudoeste 0 -- -- 25
2019-06-01 16:00:00 28.9 5 Nordeste 17 Este 0 -- -- 26
2019-06-01 15:00:00 28.5 4 Este 21 Nordeste 0 -- -- 25
2019-06-01 14:00:00 27.9 7 Este 17 Sudoeste 0 -- -- 23
2019-06-01 13:00:00 28.2 3 Sudeste 17 Norte 0 -- -- 27
2019-06-01 12:00:00 26.8 6 Sur 16 Este 0 -- -- 30
2019-06-01 11:00:00 24.8 3 Este 9 Este 0 -- -- 37
2019-06-01 10:00:00 19 0 Calma 5 Noroeste 0 -- -- 54
2019-06-01 09:00:00 15.3 0 Calma 8 Oeste 0 -- -- 54
2019-06-01 08:00:00 14.4 2 Oeste 6 Oeste 0 -- -- 56
2019-06-01 07:00:00 14.3 3 Sudoeste 6 Oeste 0 -- -- 55
2019-06-01 06:00:00 14 2 Oeste 5 Sudoeste 0 -- -- 58
2019-06-01 05:00:00 13.9 0 Calma 5 Oeste 0 -- -- 59
2019-06-01 04:00:00 13.9 0 Calma 5 Sudoeste 0 -- -- 61
2019-06-01 03:00:00 14 0 Calma 4 Noroeste 0 -- -- 60
2019-06-01 02:00:00 14.5 0 Calma 5 Noroeste 0 -- -- 57
2019-06-01 01:00:00 14.7 0 Calma 4 Oeste 0 -- -- 56
2019-06-01 00:00:00 14.8 0 Calma 4 Oeste 0 -- -- 55
2019-05-31 23:00:00 15.3 0 Calma 4 Sudoeste 0 -- -- 55
2019-05-31 22:00:00 16.3 0 Calma 5 Noroeste 0 -- -- 52
2019-05-31 21:00:00 17.7 0 Calma 6 Oeste 0 -- -- 52
2019-05-31 20:00:00 20 3 Sur 11 Noroeste 0 -- -- 48
2019-05-31 19:00:00 25.3 4 Oeste 15 Sur 0 -- -- 31
2019-05-31 18:00:00 27 6 Sudoeste 17 Sur 0 -- -- 29
2019-05-31 17:00:00 27.2 8 Sudoeste 16 Sudoeste 0 -- -- 29
2019-05-31 16:00:00 27.4 6 Sur 19 Sur 0 -- -- 31
2019-05-31 15:00:00 27.1 6 Sudoeste 15 Sudoeste 0 -- -- 27
2019-05-31 14:00:00 26.6 5 Sur 13 Este 0 -- -- 31
2019-05-31 13:00:00 25.9 5 Sur 17 Sur 0 -- -- 25
2019-05-31 12:00:00 25.1 4 Sur 9 Sur 0 -- -- 29
2019-05-31 11:00:00 22.7 4 Este 5 Este 0 -- -- 50
2019-05-31 10:00:00 16.1 2 Noroeste 4 Noroeste 0 -- -- 57
2019-05-31 09:00:00 12.2 0 Calma 3 Noroeste 0 -- -- 67
2019-05-31 08:00:00 11.4 0 Calma 5 Noroeste 0 -- -- 68
2019-05-31 07:00:00 11.2 0 Calma 5 Noroeste 0 -- -- 64
2019-05-31 06:00:00 11 0 Calma 4 Oeste 0 -- -- 66
2019-05-31 05:00:00 11.2 0 Calma 4 Noroeste 0 -- -- 61
2019-05-31 04:00:00 11 0 Calma 4 Oeste 0 -- -- 73
2019-05-31 03:00:00 11.4 0 Calma 3 Oeste 0 -- -- 81
2019-05-31 02:00:00 11.6 0 Calma 3 Oeste 0 -- -- 87
2019-05-31 01:00:00 12 0 Calma 3 Noroeste 0 -- -- 87
2019-05-31 00:00:00 12.6 0 Calma 4 Sudoeste 0 -- -- 84
2019-05-30 23:00:00 13.5 0 Calma 4 Noroeste 0 -- -- 81
2019-05-30 22:00:00 14.9 2 Oeste 5 Sudoeste 0 -- -- 76
2019-05-30 21:00:00 16.9 2 Sudoeste 8 Oeste 0 -- -- 70
2019-05-30 20:00:00 19.2 3 Oeste 13 Noroeste 0 -- -- 63
2019-05-30 19:00:00 23 5 Oeste 14 Sur 0 -- -- 49
2019-05-30 18:00:00 24.9 5 Sudoeste 17 Sudoeste 0 -- -- 47
2019-05-30 17:00:00 25.2 7 Este 18 Sur 0 -- -- 43
2019-05-30 16:00:00 25.2 6 Sur 15 Sur 0 -- -- 41
2019-05-30 15:00:00 24.5 5 Sur 14 Sudoeste 0 -- -- 41
2019-05-30 14:00:00 23.7 4 Sur 16 Sudoeste 0 -- -- 46
2019-05-30 13:00:00 22.8 4 Sudoeste 13 Nordeste 0 -- -- 48
2019-05-30 12:00:00 21.6 3 Este 9 Nordeste 0 -- -- 44
2019-05-30 11:00:00 19 4 Este 8 Nordeste 0 -- -- 50
2019-05-30 10:00:00 12.4 0 Calma 3 Nordeste 0 -- -- 80
2019-05-30 09:00:00 9.2 0 Calma 3 Noroeste 0 -- -- 83
2019-05-30 08:00:00 8.3 0 Calma 3 Noroeste 0 -- -- 87
2019-05-30 07:00:00 7.8 0 Calma 4 Noroeste 0 -- -- 84
2019-05-30 06:00:00 7.7 0 Calma 4 Oeste 0 -- -- 82
2019-05-30 05:00:00 7.6 0 Calma 3 Sudoeste 0 -- -- 86
2019-05-30 04:00:00 7.9 0 Calma 3 Noroeste 0 -- -- 91
2019-05-30 03:00:00 8.2 0 Calma 4 Noroeste 0 -- -- 93
2019-05-30 02:00:00 8.6 0 Calma 3 Oeste 0 -- -- 91
2019-05-30 01:00:00 9.1 2 Oeste 4 Oeste 0 -- -- 91
2019-05-30 00:00:00 9.5 0 Calma 4 Oeste 0 -- -- 89
2019-05-29 23:00:00 10.2 0 Calma 4 Oeste 0 -- -- 87
2019-05-29 22:00:00 11.4 0 Calma 4 Sudoeste 0 -- -- 81
2019-05-29 21:00:00 12.9 0 Calma 5 Sudoeste 0 -- -- 77
2019-05-29 20:00:00 14.8 2 Sudoeste 8 Sudoeste 0 -- -- 70
2019-05-29 19:00:00 18.4 4 Oeste 14 Sudoeste 0 -- -- 56
2019-05-29 18:00:00 19 5 Sur 16 Este 0 -- -- 53
2019-05-29 17:00:00 18.9 6 Sudeste 18 Este 0 -- -- 52
2019-05-29 16:00:00 19.2 5 Sur 19 Sudoeste 0 -- -- 52
2019-05-29 15:00:00 18.8 6 Sur 19 Sudoeste 0 -- -- 51
2019-05-29 14:00:00 16.9 6 Sur 13 Sur 0 -- -- 56
2019-05-29 13:00:00 15.4 3 Nordeste 12 Este 0 -- -- 64
2019-05-29 12:00:00 15 4 Sudoeste 13 Sudoeste 0 -- -- 64
2019-05-29 11:00:00 11.9 5 Este 12 Nordeste 0 -- -- 66
2019-05-29 10:00:00 8.2 4 Nordeste 8 Nordeste 0 -- -- 85
2019-05-29 09:00:00 4.4 0 Calma 6 Noroeste 0 -- -- 97
2019-05-29 08:00:00 3.8 2 Sudeste 7 Este 0 -- -- 97
2019-05-29 07:00:00 3.8 0 Calma 4 Sudoeste 0 -- -- 95
2019-05-29 06:00:00 4.4 0 Calma 5 Sudoeste 0 -- -- 94
2019-05-29 05:00:00 5.1 0 Calma 5 Sudoeste 0 -- -- 95
2019-05-29 04:00:00 5.2 0 Calma 4 Oeste 0 -- -- 94
2019-05-29 03:00:00 5.4 2 Oeste 4 Sudoeste 0 -- -- 94
2019-05-29 02:00:00 5.6 0 Calma 5 Sudoeste 0 -- -- 93
2019-05-29 01:00:00 6.3 0 Calma 4 Sur 0 -- -- 91
2019-05-29 00:00:00 7 0 Calma 10 Sudoeste 0 -- -- 89
2019-05-28 23:00:00 7.5 2 Sur 6 Sudoeste 0 -- -- 85
2019-05-28 22:00:00 8.6 3 Sudoeste 10 Oeste 0 -- -- 80
2019-05-28 21:00:00 10 2 Oeste 9 Sudoeste 0 -- -- 71
2019-05-28 20:00:00 11.5 4 Oeste 9 Oeste 0 -- -- 60
2019-05-28 19:00:00 13.5 4 Oeste 12 Sudoeste 0 -- -- 52
2019-05-28 18:00:00 15.5 4 Nordeste 15 Sudoeste 0 -- -- 48
2019-05-28 17:00:00 16.2 4 Este 16 Noroeste 0 -- -- 50
2019-05-28 16:00:00 16.5 6 Noroeste 26 Este 0 -- -- 45
2019-05-28 15:00:00 14.1 5 Nordeste 18 Este 0 -- -- 52
2019-05-28 14:00:00 13.2 8 Este 24 Este 0 -- -- 53
2019-05-28 13:00:00 15 5 Norte 21 Nordeste 0 -- -- 53
2019-05-28 12:00:00 12.3 7 Nordeste 16 Este 0 -- -- 58
2019-05-28 11:00:00 10.7 5 Este 10 Este 0 -- -- 59
2019-05-28 10:00:00 7.3 0 Calma 5 Noroeste 0 -- -- 78
2019-05-28 09:00:00 3.9 0 Calma 4 Oeste 0 -- -- 96
2019-05-28 08:00:00 3.1 0 Calma 3 Oeste 0 -- -- 96
2019-05-28 07:00:00 3.2 0 Calma 5 Oeste 0 -- -- 95
2019-05-28 06:00:00 3.6 0 Calma 4 Noroeste 0 -- -- 95
2019-05-28 05:00:00 4.3 0 Calma 4 Oeste 0 -- -- 93
2019-05-28 04:00:00 5 0 Calma 3 Oeste 0 -- -- 93
2019-05-28 03:00:00 5.1 0 Calma 4 Sudoeste 0 -- -- 92
2019-05-28 02:00:00 5.6 3 Sudoeste 4 Oeste 0 -- -- 91
2019-05-28 01:00:00 6.2 2 Sudoeste 5 Sudoeste 0 -- -- 89
2019-05-28 00:00:00 7.2 2 Sudoeste 7 Sur 0 -- -- 85
2019-05-27 23:00:00 8.5 2 Sudoeste 5 Sudoeste 0 -- -- 83
2019-05-27 22:00:00 9.7 2 Sudeste 11 Este 0 -- -- 86
2019-05-27 21:00:00 11.2 3 Sur 17 Sur 0 -- -- 77
2019-05-27 20:00:00 12.7 7 Sur 19 Nordeste 0 -- -- 68
2019-05-27 19:00:00 14.2 10 Sur 26 Sudoeste 0 -- -- 64
2019-05-27 18:00:00 17.5 7 Sur 25 Sudoeste 0 -- -- 57
2019-05-27 17:00:00 17.7 8 Sudoeste 22 Noroeste 0 -- -- 56
2019-05-27 16:00:00 17.8 8 Sudoeste 24 Sudoeste 0 -- -- 58
2019-05-27 15:00:00 17.1 7 Sudoeste 20 Sudoeste 0 -- -- 54
2019-05-27 14:00:00 16.4 7 Sur 21 Sudoeste 0 -- -- 62
2019-05-27 13:00:00 16.5 4 Este 12 Este 0 -- -- 69
2019-05-27 12:00:00 13.9 4 Norte 11 Noroeste 0 -- -- 79
2019-05-27 11:00:00 12.1 3 Norte 5 Nordeste 0 -- -- 88
2019-05-27 10:00:00 10.3 0 Calma 4 Noroeste 0 -- -- 93
2019-05-27 09:00:00 8.7 3 Este 7 Este 0 -- -- 95
2019-05-27 08:00:00 8 0 Calma 4 Sur 0 -- -- 97
2019-05-27 07:00:00 7.7 0 Calma 5 Noroeste 0 -- -- 98
2019-05-27 06:00:00 7.9 2 Sudoeste 5 Sudoeste 0 -- -- 97
2019-05-27 05:00:00 8.2 2 Sur 4 Sudoeste 0 -- -- 96
2019-05-27 04:00:00 8.6 0 Calma 5 Sudoeste 0 -- -- 96
2019-05-27 03:00:00 9 2 Sudoeste 5 Sudoeste 0 -- -- 96
2019-05-27 02:00:00 9.2 3 Sur 6 Sur 0 -- -- 96
2019-05-27 01:00:00 9.6 3 Sur 6 Sur 0 -- -- 97
2019-05-27 00:00:00 10 0 Calma 5 Sur 0 -- -- 97
2019-05-26 23:00:00 10.2 2 Sur 7 Sur 0 -- -- 96
2019-05-26 22:00:00 10.9 2 Este 8 Sur 0 -- -- 92
2019-05-26 21:00:00 12.7 2 Sur 6 Sudoeste 0 -- -- 85
2019-05-26 20:00:00 14.6 3 Sudoeste 11 Sudoeste 0 -- -- 78
2019-05-26 19:00:00 18 4 Oeste 15 Oeste 0 -- -- 65
2019-05-26 18:00:00 20 6 Sudoeste 13 Sudeste 0 -- -- 62
2019-05-26 17:00:00 20.8 4 Sudoeste 14 Sudoeste 0 -- -- 57
2019-05-26 16:00:00 20.4 6 Sur 16 Sudoeste 0 -- -- 59
2019-05-26 15:00:00 19.9 5 Sudoeste 14 Sudoeste 0 -- -- 60
2019-05-26 14:00:00 18.5 6 Sudoeste 14 Sur 0 -- -- 62
2019-05-26 13:00:00 17.3 4 Sur 14 Sur 0 -- -- 63
2019-05-26 12:00:00 16 5 Sur 13 Nordeste 0 -- -- 65
2019-05-26 11:00:00 13.6 4 Sudeste 10 Este 0 -- -- 73
2019-05-26 10:00:00 8.7 2 Noroeste 5 Este 0 -- -- 95
2019-05-26 09:00:00 5.1 0 Calma 4 Noroeste 0 -- -- 100
2019-05-26 08:00:00 4.5 0 Calma 4 Noroeste 0 -- -- 99
2019-05-26 07:00:00 4.2 0 Calma 5 Oeste 0 -- -- 98
2019-05-26 06:00:00 4.3 0 Calma 4 Oeste 0 -- -- 98
2019-05-26 05:00:00 4.6 0 Calma 4 Oeste 0 -- -- 97
2019-05-26 04:00:00 5.1 0 Calma 5 Sudoeste 0 -- -- 96
2019-05-26 03:00:00 6.1 0 Calma 4 Oeste 0 -- -- 94
2019-05-26 02:00:00 7.1 2 Sur 6 Sur 0 -- -- 95
2019-05-26 01:00:00 7.4 2 Sur 4 Sudoeste 0 -- -- 96
2019-05-26 00:00:00 7.7 0 Calma 4 Sudeste 0 -- -- 96